AFR1703 LIMF-LFPG
Flight info
| Callsign | AFR1703 |
|---|---|
| Flight time | 1h 0m |
| Altitude | 34000 |
| Route | KUKEV DCT MOLUS DCT UNKIR DCT GIVRI DCT TINIL |
| Aircraft | A20N/M-SDE2E3FGHIRWXY/LB1 |
Departure
| Time | 2026-05-07 16:47 |
|---|---|
| Airport | Turin Airport (LIMF) |
Arrival
| Time | 2026-05-07 17:47 |
|---|---|
| Airport | Charles de Gaulle International Airport (LFPG) |
| Time | Latitude | Longitude | Altitude | Speed | Heading |
|---|---|---|---|---|---|
| 2026-05-07 16:39 | 45.19065 | 7.64514 | 948 ft | 0 kts | 257° |
| 2026-05-07 16:41 | 45.19068 | 7.64527 | 947 ft | 0 kts | 257° |
| 2026-05-07 16:41 | 45.19070 | 7.64545 | 947 ft | 3 kts | 257° |
| 2026-05-07 16:41 | 45.19076 | 7.64581 | 948 ft | 4 kts | 257° |
| 2026-05-07 16:42 | 45.19083 | 7.64623 | 949 ft | 4 kts | 257° |
| 2026-05-07 16:42 | 45.19097 | 7.64651 | 947 ft | 7 kts | 194° |
| 2026-05-07 16:42 | 45.19107 | 7.64654 | 948 ft | 0 kts | 183° |
| 2026-05-07 16:43 | 45.19100 | 7.64653 | 947 ft | 4 kts | 182° |
| 2026-05-07 16:44 | 45.19045 | 7.64651 | 948 ft | 10 kts | 181° |
| 2026-05-07 16:44 | 45.18959 | 7.64648 | 946 ft | 15 kts | 181° |
| 2026-05-07 16:44 | 45.18836 | 7.64642 | 938 ft | 19 kts | 183° |
| 2026-05-07 16:44 | 45.18718 | 7.64632 | 934 ft | 17 kts | 184° |
| 2026-05-07 16:45 | 45.18643 | 7.64658 | 933 ft | 4 kts | 141° |
| 2026-05-07 16:45 | 45.18619 | 7.64708 | 932 ft | 8 kts | 112° |
| 2026-05-07 16:45 | 45.18625 | 7.64807 | 930 ft | 12 kts | 57° |
| 2026-05-07 16:45 | 45.18692 | 7.64876 | 934 ft | 11 kts | 8° |
| 2026-05-07 16:46 | 45.18775 | 7.64885 | 939 ft | 35 kts | 3° |
| 2026-05-07 16:46 | 45.19258 | 7.64915 | 955 ft | 101 kts | 2° |
| 2026-05-07 16:46 | 45.20144 | 7.64971 | 979 ft | 151 kts | 2° |
| 2026-05-07 16:46 | 45.21249 | 7.65055 | 1382 ft | 159 kts | 5° |
| 2026-05-07 16:47 | 45.22380 | 7.65173 | 1938 ft | 166 kts | 4° |
| 2026-05-07 16:47 | 45.23624 | 7.65209 | 2298 ft | 192 kts | 2° |
| 2026-05-07 16:47 | 45.25030 | 7.65215 | 2645 ft | 209 kts | 2° |
| 2026-05-07 16:47 | 45.26502 | 7.65413 | 3117 ft | 215 kts | 22° |
| 2026-05-07 16:48 | 45.27684 | 7.66619 | 3917 ft | 210 kts | 52° |
| 2026-05-07 16:48 | 45.28763 | 7.68126 | 4344 ft | 232 kts | 31° |
| 2026-05-07 16:48 | 45.30395 | 7.68764 | 4678 ft | 259 kts | 360° |
| 2026-05-07 16:48 | 45.32150 | 7.68103 | 5384 ft | 266 kts | 330° |
| 2026-05-07 16:49 | 45.33535 | 7.66331 | 6218 ft | 271 kts | 309° |
| 2026-05-07 16:49 | 45.34714 | 7.64213 | 7047 ft | 274 kts | 310° |
| 2026-05-07 16:49 | 45.35979 | 7.62218 | 7836 ft | 277 kts | 315° |
| 2026-05-07 16:49 | 45.37414 | 7.60350 | 8621 ft | 281 kts | 320° |
| 2026-05-07 16:50 | 45.38915 | 7.58543 | 9342 ft | 286 kts | 317° |
| 2026-05-07 16:50 | 45.40326 | 7.56505 | 9973 ft | 291 kts | 315° |
| 2026-05-07 16:50 | 45.41774 | 7.54436 | 10524 ft | 303 kts | 315° |
| 2026-05-07 16:50 | 45.43320 | 7.52249 | 10753 ft | 325 kts | 315° |
| 2026-05-07 16:51 | 45.44975 | 7.49903 | 10926 ft | 346 kts | 315° |
| 2026-05-07 16:51 | 45.46711 | 7.47431 | 11312 ft | 358 kts | 315° |
| 2026-05-07 16:51 | 45.48491 | 7.44892 | 11739 ft | 364 kts | 315° |
| 2026-05-07 16:51 | 45.50290 | 7.42323 | 12244 ft | 368 kts | 315° |
| 2026-05-07 16:52 | 45.52103 | 7.39736 | 12785 ft | 369 kts | 315° |
| 2026-05-07 16:52 | 45.53940 | 7.37109 | 13415 ft | 368 kts | 315° |
| 2026-05-07 16:52 | 45.55731 | 7.34542 | 14222 ft | 363 kts | 315° |
| 2026-05-07 16:52 | 45.57499 | 7.31997 | 15004 ft | 358 kts | 315° |
| 2026-05-07 16:53 | 45.59238 | 7.29500 | 15796 ft | 351 kts | 315° |
| 2026-05-07 16:53 | 45.60943 | 7.27050 | 16586 ft | 343 kts | 315° |
| 2026-05-07 16:53 | 45.62601 | 7.24669 | 17354 ft | 335 kts | 315° |
| 2026-05-07 16:53 | 45.64298 | 7.22379 | 17834 ft | 340 kts | 321° |
| 2026-05-07 16:54 | 45.66253 | 7.20359 | 17995 ft | 354 kts | 329° |
| 2026-05-07 16:54 | 45.68441 | 7.18711 | 18150 ft | 368 kts | 336° |
| 2026-05-07 16:54 | 45.70832 | 7.17167 | 18307 ft | 382 kts | 335° |
| 2026-05-07 16:54 | 45.73131 | 7.15134 | 18425 ft | 395 kts | 325° |
| 2026-05-07 16:55 | 45.75357 | 7.12738 | 18676 ft | 401 kts | 322° |
| 2026-05-07 16:55 | 45.77560 | 7.10285 | 19159 ft | 403 kts | 322° |
| 2026-05-07 16:55 | 45.79788 | 7.07835 | 19589 ft | 403 kts | 323° |
| 2026-05-07 16:55 | 45.82043 | 7.05395 | 19779 ft | 411 kts | 323° |
| 2026-05-07 16:56 | 45.84340 | 7.02941 | 20208 ft | 410 kts | 324° |
| 2026-05-07 16:56 | 45.86623 | 7.00512 | 20735 ft | 409 kts | 324° |
| 2026-05-07 16:56 | 45.91257 | 6.95588 | 21324 ft | 416 kts | 324° |
| 2026-05-07 16:57 | 45.93594 | 6.93102 | 21639 ft | 420 kts | 324° |
| 2026-05-07 16:57 | 45.95936 | 6.90604 | 22257 ft | 417 kts | 324° |
| 2026-05-07 16:57 | 45.98267 | 6.88115 | 22594 ft | 421 kts | 324° |
| 2026-05-07 16:57 | 45.99862 | 6.86413 | 22670 ft | 426 kts | 324° |
| 2026-05-07 16:58 | 46.02245 | 6.83865 | 22926 ft | 429 kts | 324° |
| 2026-05-07 16:58 | 46.05420 | 6.80464 | 23434 ft | 429 kts | 324° |
| 2026-05-07 16:58 | 46.07027 | 6.78739 | 23851 ft | 425 kts | 324° |
| 2026-05-07 16:58 | 46.09411 | 6.76180 | 24123 ft | 430 kts | 324° |
| 2026-05-07 16:59 | 46.11790 | 6.73623 | 24457 ft | 432 kts | 323° |
| 2026-05-07 16:59 | 46.14216 | 6.71015 | 24707 ft | 437 kts | 323° |
| 2026-05-07 16:59 | 46.16651 | 6.68395 | 25086 ft | 437 kts | 323° |
| 2026-05-07 16:59 | 46.19085 | 6.65774 | 25459 ft | 438 kts | 323° |
| 2026-05-07 17:00 | 46.21536 | 6.63131 | 25687 ft | 442 kts | 323° |
| 2026-05-07 17:00 | 46.24031 | 6.60436 | 26014 ft | 443 kts | 323° |
| 2026-05-07 17:00 | 46.26467 | 6.57802 | 26350 ft | 444 kts | 323° |
| 2026-05-07 17:00 | 46.28953 | 6.55111 | 26583 ft | 446 kts | 323° |
| 2026-05-07 17:01 | 46.31428 | 6.52426 | 27024 ft | 446 kts | 323° |
| 2026-05-07 17:01 | 46.33946 | 6.49692 | 27290 ft | 448 kts | 323° |
| 2026-05-07 17:01 | 46.36454 | 6.46967 | 27658 ft | 449 kts | 323° |
| 2026-05-07 17:01 | 46.38951 | 6.44252 | 27961 ft | 451 kts | 323° |
| 2026-05-07 17:02 | 46.41466 | 6.41512 | 28246 ft | 453 kts | 323° |
| 2026-05-07 17:02 | 46.43995 | 6.38754 | 28522 ft | 455 kts | 323° |
| 2026-05-07 17:02 | 46.46524 | 6.35993 | 28795 ft | 457 kts | 323° |
| 2026-05-07 17:02 | 46.49036 | 6.33247 | 29009 ft | 460 kts | 323° |
| 2026-05-07 17:03 | 46.51570 | 6.30474 | 29207 ft | 462 kts | 323° |
| 2026-05-07 17:03 | 46.54189 | 6.27605 | 29397 ft | 465 kts | 323° |
| 2026-05-07 17:03 | 46.59373 | 6.21915 | 29702 ft | 469 kts | 323° |
| 2026-05-07 17:04 | 46.61995 | 6.19030 | 29959 ft | 469 kts | 323° |
| 2026-05-07 17:04 | 46.64602 | 6.16160 | 30076 ft | 472 kts | 323° |
| 2026-05-07 17:04 | 46.67226 | 6.13267 | 30317 ft | 472 kts | 323° |
| 2026-05-07 17:04 | 46.69819 | 6.10404 | 30551 ft | 473 kts | 323° |
| 2026-05-07 17:05 | 46.72451 | 6.07495 | 30738 ft | 475 kts | 323° |
| 2026-05-07 17:05 | 46.75056 | 6.04613 | 30981 ft | 476 kts | 323° |
| 2026-05-07 17:05 | 46.77693 | 6.01692 | 31224 ft | 476 kts | 323° |
| 2026-05-07 17:05 | 46.80334 | 5.98761 | 31480 ft | 477 kts | 323° |
| 2026-05-07 17:06 | 46.82973 | 5.95829 | 31765 ft | 476 kts | 323° |
| 2026-05-07 17:06 | 46.85602 | 5.92903 | 32116 ft | 474 kts | 323° |
| 2026-05-07 17:06 | 46.88232 | 5.89974 | 32368 ft | 474 kts | 323° |
| 2026-05-07 17:06 | 46.90814 | 5.87096 | 32648 ft | 473 kts | 323° |
| 2026-05-07 17:07 | 46.93433 | 5.84172 | 32912 ft | 472 kts | 323° |
| 2026-05-07 17:07 | 46.96039 | 5.81260 | 33230 ft | 471 kts | 323° |
| 2026-05-07 17:07 | 46.98647 | 5.78341 | 33534 ft | 469 kts | 323° |
| 2026-05-07 17:07 | 47.01232 | 5.75444 | 33793 ft | 469 kts | 323° |
| 2026-05-07 17:08 | 47.03825 | 5.72535 | 34048 ft | 468 kts | 323° |
| 2026-05-07 17:08 | 47.06413 | 5.69627 | 34166 ft | 468 kts | 323° |
| 2026-05-07 17:08 | 47.11569 | 5.63828 | 34169 ft | 466 kts | 323° |
| 2026-05-07 17:09 | 47.16710 | 5.58027 | 34169 ft | 467 kts | 323° |
| 2026-05-07 17:09 | 47.21861 | 5.52204 | 34169 ft | 467 kts | 323° |
| 2026-05-07 17:10 | 47.27008 | 5.46366 | 34167 ft | 466 kts | 323° |
| 2026-05-07 17:10 | 47.32142 | 5.40530 | 34169 ft | 466 kts | 323° |
| 2026-05-07 17:11 | 47.36109 | 5.36008 | 34170 ft | 466 kts | 323° |
| 2026-05-07 17:11 | 47.40477 | 5.31021 | 34171 ft | 466 kts | 322° |
| 2026-05-07 17:12 | 47.45597 | 5.25162 | 34098 ft | 467 kts | 322° |
| 2026-05-07 17:12 | 47.48164 | 5.22218 | 33854 ft | 467 kts | 322° |
| 2026-05-07 17:12 | 47.50720 | 5.19283 | 33604 ft | 466 kts | 322° |
| 2026-05-07 17:13 | 47.53287 | 5.16333 | 33079 ft | 468 kts | 322° |
| 2026-05-07 17:13 | 47.55881 | 5.13350 | 32261 ft | 472 kts | 322° |
| 2026-05-07 17:13 | 47.58483 | 5.10353 | 31283 ft | 478 kts | 322° |
| 2026-05-07 17:13 | 47.60983 | 5.07203 | 30604 ft | 476 kts | 320° |
| 2026-05-07 17:14 | 47.63478 | 5.04063 | 30167 ft | 468 kts | 320° |
| 2026-05-07 17:14 | 47.65963 | 5.00969 | 29593 ft | 463 kts | 320° |
| 2026-05-07 17:14 | 47.68301 | 4.98057 | 29035 ft | 459 kts | 320° |
| 2026-05-07 17:14 | 47.70737 | 4.95011 | 28466 ft | 455 kts | 320° |
| 2026-05-07 17:15 | 47.73113 | 4.92026 | 28059 ft | 447 kts | 320° |
| 2026-05-07 17:15 | 47.75465 | 4.89060 | 27619 ft | 440 kts | 320° |
| 2026-05-07 17:15 | 47.77778 | 4.86129 | 27329 ft | 430 kts | 320° |
| 2026-05-07 17:15 | 47.80038 | 4.83258 | 26962 ft | 427 kts | 320° |
| 2026-05-07 17:16 | 47.82302 | 4.80382 | 26532 ft | 428 kts | 320° |
| 2026-05-07 17:16 | 47.84560 | 4.77510 | 26097 ft | 426 kts | 320° |
| 2026-05-07 17:16 | 47.86802 | 4.74656 | 25666 ft | 422 kts | 320° |
| 2026-05-07 17:16 | 47.89017 | 4.71834 | 25246 ft | 418 kts | 320° |
| 2026-05-07 17:17 | 47.91219 | 4.69023 | 24826 ft | 415 kts | 320° |
| 2026-05-07 17:17 | 47.93405 | 4.66231 | 24408 ft | 412 kts | 320° |
| 2026-05-07 17:17 | 47.95577 | 4.63454 | 23991 ft | 410 kts | 320° |
| 2026-05-07 17:17 | 47.97737 | 4.60689 | 23572 ft | 408 kts | 320° |
| 2026-05-07 17:18 | 47.99878 | 4.57944 | 23160 ft | 405 kts | 320° |
| 2026-05-07 17:18 | 48.02023 | 4.55192 | 22759 ft | 402 kts | 320° |
| 2026-05-07 17:18 | 48.04135 | 4.52479 | 22355 ft | 400 kts | 320° |
| 2026-05-07 17:18 | 48.06189 | 4.49836 | 21959 ft | 397 kts | 320° |
| 2026-05-07 17:19 | 48.08250 | 4.47182 | 21566 ft | 395 kts | 320° |
| 2026-05-07 17:19 | 48.10328 | 4.44504 | 21150 ft | 393 kts | 320° |
| 2026-05-07 17:19 | 48.12395 | 4.41837 | 20770 ft | 390 kts | 320° |
| 2026-05-07 17:19 | 48.14442 | 4.39193 | 20371 ft | 388 kts | 320° |
| 2026-05-07 17:20 | 48.16478 | 4.36560 | 19989 ft | 385 kts | 320° |
| 2026-05-07 17:20 | 48.18501 | 4.33940 | 19602 ft | 383 kts | 320° |
| 2026-05-07 17:20 | 48.20510 | 4.31337 | 19214 ft | 380 kts | 320° |
| 2026-05-07 17:20 | 48.22504 | 4.28750 | 18833 ft | 378 kts | 320° |
| 2026-05-07 17:21 | 48.24484 | 4.26179 | 18597 ft | 371 kts | 320° |
| 2026-05-07 17:21 | 48.26350 | 4.23602 | 18470 ft | 358 kts | 313° |
| 2026-05-07 17:21 | 48.27932 | 4.20793 | 18335 ft | 347 kts | 309° |
| 2026-05-07 17:21 | 48.29437 | 4.18029 | 18177 ft | 336 kts | 310° |
| 2026-05-07 17:22 | 48.30913 | 4.15346 | 18171 ft | 334 kts | 310° |
| 2026-05-07 17:22 | 48.32406 | 4.12636 | 18170 ft | 339 kts | 310° |
| 2026-05-07 17:22 | 48.33883 | 4.09950 | 18168 ft | 337 kts | 310° |
| 2026-05-07 17:22 | 48.35381 | 4.07216 | 18168 ft | 337 kts | 310° |
| 2026-05-07 17:23 | 48.36872 | 4.04493 | 18170 ft | 339 kts | 310° |
| 2026-05-07 17:23 | 48.38424 | 4.01652 | 18171 ft | 362 kts | 309° |
| 2026-05-07 17:23 | 48.40070 | 3.98634 | 18170 ft | 383 kts | 309° |
| 2026-05-07 17:23 | 48.41785 | 3.95493 | 18169 ft | 389 kts | 310° |
| 2026-05-07 17:24 | 48.43500 | 3.92348 | 18169 ft | 387 kts | 309° |
| 2026-05-07 17:24 | 48.45184 | 3.89256 | 18152 ft | 370 kts | 309° |
| 2026-05-07 17:24 | 48.46782 | 3.86315 | 18172 ft | 347 kts | 309° |
| 2026-05-07 17:24 | 48.48255 | 3.83601 | 18168 ft | 332 kts | 309° |
| 2026-05-07 17:25 | 48.49723 | 3.80893 | 18168 ft | 337 kts | 309° |
| 2026-05-07 17:25 | 48.51230 | 3.78115 | 17901 ft | 338 kts | 309° |
| 2026-05-07 17:25 | 48.52714 | 3.75374 | 17334 ft | 337 kts | 309° |
| 2026-05-07 17:25 | 48.54138 | 3.72637 | 16716 ft | 335 kts | 304° |
| 2026-05-07 17:26 | 48.55397 | 3.69699 | 16099 ft | 332 kts | 303° |
| 2026-05-07 17:26 | 48.56646 | 3.66784 | 15473 ft | 330 kts | 303° |
| 2026-05-07 17:26 | 48.57886 | 3.63904 | 14849 ft | 328 kts | 303° |
| 2026-05-07 17:26 | 48.59129 | 3.61019 | 14227 ft | 327 kts | 303° |
| 2026-05-07 17:27 | 48.60363 | 3.58149 | 13603 ft | 325 kts | 303° |
| 2026-05-07 17:27 | 48.61588 | 3.55295 | 12978 ft | 323 kts | 303° |
| 2026-05-07 17:27 | 48.62808 | 3.52447 | 12351 ft | 321 kts | 303° |
| 2026-05-07 17:27 | 48.64020 | 3.49616 | 11715 ft | 319 kts | 303° |
| 2026-05-07 17:28 | 48.65201 | 3.46855 | 11506 ft | 307 kts | 303° |
| 2026-05-07 17:28 | 48.66341 | 3.44187 | 11309 ft | 299 kts | 303° |
| 2026-05-07 17:28 | 48.67457 | 3.41572 | 11077 ft | 292 kts | 303° |
| 2026-05-07 17:28 | 48.68530 | 3.39049 | 11113 ft | 290 kts | 303° |
| 2026-05-07 17:29 | 48.69635 | 3.36452 | 11159 ft | 293 kts | 303° |
| 2026-05-07 17:29 | 48.70738 | 3.33861 | 11216 ft | 293 kts | 303° |
| 2026-05-07 17:29 | 48.71856 | 3.31233 | 11267 ft | 293 kts | 303° |
| 2026-05-07 17:29 | 48.72946 | 3.28668 | 11317 ft | 294 kts | 303° |
| 2026-05-07 17:30 | 48.74050 | 3.26068 | 11373 ft | 293 kts | 303° |
| 2026-05-07 17:30 | 48.75154 | 3.23463 | 11429 ft | 294 kts | 303° |
| 2026-05-07 17:30 | 48.76256 | 3.20857 | 11486 ft | 294 kts | 303° |
| 2026-05-07 17:30 | 48.77360 | 3.18248 | 11532 ft | 294 kts | 303° |
| 2026-05-07 17:31 | 48.78464 | 3.15638 | 11590 ft | 295 kts | 303° |
| 2026-05-07 17:31 | 48.79573 | 3.13015 | 11646 ft | 295 kts | 303° |
| 2026-05-07 17:31 | 48.80678 | 3.10399 | 11694 ft | 294 kts | 303° |
| 2026-05-07 17:31 | 48.81780 | 3.07783 | 11750 ft | 294 kts | 303° |
| 2026-05-07 17:32 | 48.82884 | 3.05157 | 11805 ft | 295 kts | 303° |
| 2026-05-07 17:32 | 48.83990 | 3.02524 | 11860 ft | 295 kts | 303° |
| 2026-05-07 17:32 | 48.85245 | 3.00057 | 11917 ft | 295 kts | 313° |
| 2026-05-07 17:32 | 48.86165 | 2.98556 | 11934 ft | 294 kts | 313° |
| 2026-05-07 17:33 | 48.87992 | 2.95549 | 11741 ft | 298 kts | 313° |
| 2026-05-07 17:33 | 48.89442 | 2.93143 | 11801 ft | 315 kts | 313° |
| 2026-05-07 17:33 | 48.90869 | 2.90755 | 11651 ft | 294 kts | 313° |
| 2026-05-07 17:33 | 48.91772 | 2.89231 | 11571 ft | 283 kts | 312° |
| 2026-05-07 17:34 | 48.93464 | 2.86352 | 11421 ft | 269 kts | 311° |
| 2026-05-07 17:34 | 48.94429 | 2.83990 | 11254 ft | 259 kts | 288° |
| 2026-05-07 17:34 | 48.94694 | 2.81362 | 10949 ft | 254 kts | 265° |
| 2026-05-07 17:34 | 48.94504 | 2.79578 | 10625 ft | 257 kts | 256° |
| 2026-05-07 17:35 | 48.94053 | 2.76894 | 10023 ft | 267 kts | 254° |
| 2026-05-07 17:35 | 48.93535 | 2.74130 | 9448 ft | 275 kts | 252° |
| 2026-05-07 17:35 | 48.93027 | 2.71340 | 8967 ft | 280 kts | 257° |
| 2026-05-07 17:35 | 48.92699 | 2.68402 | 8589 ft | 279 kts | 262° |
| 2026-05-07 17:36 | 48.92456 | 2.65488 | 8298 ft | 275 kts | 264° |
| 2026-05-07 17:36 | 48.92295 | 2.62608 | 8016 ft | 271 kts | 264° |
| 2026-05-07 17:36 | 48.92133 | 2.59748 | 7738 ft | 267 kts | 265° |
| 2026-05-07 17:36 | 48.92019 | 2.56976 | 7477 ft | 263 kts | 266° |
| 2026-05-07 17:37 | 48.91931 | 2.54190 | 7257 ft | 267 kts | 267° |
| 2026-05-07 17:37 | 48.91859 | 2.51358 | 7044 ft | 270 kts | 268° |
| 2026-05-07 17:37 | 48.91799 | 2.48620 | 6843 ft | 271 kts | 268° |
| 2026-05-07 17:37 | 48.91745 | 2.45687 | 6634 ft | 272 kts | 268° |
| 2026-05-07 17:38 | 48.91703 | 2.42805 | 6434 ft | 273 kts | 268° |
| 2026-05-07 17:38 | 48.91668 | 2.39910 | 6239 ft | 274 kts | 268° |
| 2026-05-07 17:38 | 48.91638 | 2.37008 | 6042 ft | 274 kts | 269° |
| 2026-05-07 17:38 | 48.91564 | 2.34112 | 5849 ft | 272 kts | 266° |
| 2026-05-07 17:39 | 48.91430 | 2.31281 | 5651 ft | 268 kts | 265° |
| 2026-05-07 17:39 | 48.91263 | 2.28466 | 5442 ft | 264 kts | 264° |
| 2026-05-07 17:39 | 48.91102 | 2.25700 | 5239 ft | 260 kts | 268° |
| 2026-05-07 17:39 | 48.91314 | 2.23023 | 5083 ft | 254 kts | 288° |
| 2026-05-07 17:40 | 48.92111 | 2.20688 | 4960 ft | 246 kts | 309° |
| 2026-05-07 17:40 | 48.93363 | 2.19001 | 4827 ft | 238 kts | 331° |
| 2026-05-07 17:40 | 48.94869 | 2.18182 | 4675 ft | 230 kts | 354° |
| 2026-05-07 17:40 | 48.96460 | 2.17881 | 4365 ft | 231 kts | 355° |
| 2026-05-07 17:41 | 48.98072 | 2.17626 | 4176 ft | 226 kts | 356° |
| 2026-05-07 17:41 | 48.99597 | 2.17723 | 4073 ft | 214 kts | 20° |
| 2026-05-07 17:41 | 49.00689 | 2.19017 | 3971 ft | 199 kts | 65° |
| 2026-05-07 17:41 | 49.00975 | 2.21040 | 3974 ft | 208 kts | 87° |
| 2026-05-07 17:42 | 49.01023 | 2.23111 | 3867 ft | 184 kts | 89° |
| 2026-05-07 17:42 | 49.01078 | 2.25165 | 3764 ft | 195 kts | 88° |
| 2026-05-07 17:42 | 49.01156 | 2.27135 | 3541 ft | 178 kts | 87° |
| 2026-05-07 17:42 | 49.01245 | 2.28938 | 3347 ft | 163 kts | 86° |
| 2026-05-07 17:43 | 49.01327 | 2.30568 | 3163 ft | 146 kts | 86° |
| 2026-05-07 17:43 | 49.01403 | 2.32051 | 2976 ft | 134 kts | 86° |
| 2026-05-07 17:43 | 49.01478 | 2.33498 | 2800 ft | 139 kts | 86° |
| 2026-05-07 17:43 | 49.01553 | 2.34957 | 2629 ft | 137 kts | 86° |
| 2026-05-07 17:44 | 49.01628 | 2.36404 | 2456 ft | 138 kts | 86° |
| 2026-05-07 17:44 | 49.01703 | 2.37845 | 2263 ft | 135 kts | 86° |
| 2026-05-07 17:44 | 49.01775 | 2.39305 | 2094 ft | 139 kts | 86° |
| 2026-05-07 17:44 | 49.01855 | 2.40737 | 1898 ft | 134 kts | 86° |
| 2026-05-07 17:45 | 49.01929 | 2.42179 | 1721 ft | 136 kts | 86° |
| 2026-05-07 17:45 | 49.02004 | 2.43607 | 1538 ft | 137 kts | 86° |
| 2026-05-07 17:45 | 49.02078 | 2.45030 | 1362 ft | 133 kts | 86° |
| 2026-05-07 17:45 | 49.02153 | 2.46445 | 1176 ft | 135 kts | 87° |
| 2026-05-07 17:46 | 49.02224 | 2.47870 | 1033 ft | 135 kts | 87° |
| 2026-05-07 17:46 | 49.02298 | 2.49320 | 813 ft | 139 kts | 85° |
| 2026-05-07 17:46 | 49.02391 | 2.50783 | 587 ft | 138 kts | 87° |
| 2026-05-07 17:46 | 49.02460 | 2.52215 | 419 ft | 133 kts | 86° |
| 2026-05-07 17:47 | 49.02531 | 2.53576 | 356 ft | 118 kts | 85° |
| 2026-05-07 17:47 | 49.02570 | 2.54491 | 351 ft | 39 kts | 96° |
| 2026-05-07 17:47 | 49.02523 | 2.54696 | 354 ft | 19 kts | 107° |
| 2026-05-07 17:47 | 49.02489 | 2.54881 | 358 ft | 19 kts | 105° |
| 2026-05-07 17:48 | 49.02454 | 2.55057 | 359 ft | 17 kts | 108° |
| 2026-05-07 17:48 | 49.02442 | 2.55223 | 359 ft | 13 kts | 84° |
| 2026-05-07 17:48 | 49.02449 | 2.55333 | 354 ft | 8 kts | 85° |
| 2026-05-07 17:48 | 49.02456 | 2.55417 | 357 ft | 7 kts | 82° |
| 2026-05-07 17:49 | 49.02461 | 2.55469 | 354 ft | 1 kts | 84° |
| 2026-05-07 17:49 | 49.02461 | 2.55482 | 356 ft | 0 kts | 85° |
| 2026-05-07 17:50 | 49.02462 | 2.55496 | 359 ft | 3 kts | 85° |
| 2026-05-07 17:50 | 49.02463 | 2.55531 | 361 ft | 4 kts | 91° |
| 2026-05-07 17:50 | 49.02450 | 2.55581 | 364 ft | 7 kts | 127° |
| 2026-05-07 17:51 | 49.02411 | 2.55612 | 358 ft | 7 kts | 170° |
| 2026-05-07 17:51 | 49.02351 | 2.55621 | 355 ft | 10 kts | 177° |
| 2026-05-07 17:51 | 49.02274 | 2.55627 | 357 ft | 11 kts | 176° |
| 2026-05-07 17:51 | 49.02199 | 2.55637 | 358 ft | 12 kts | 175° |
| 2026-05-07 17:52 | 49.02138 | 2.55642 | 357 ft | 8 kts | 183° |
| 2026-05-07 17:52 | 49.02084 | 2.55613 | 359 ft | 9 kts | 218° |
| 2026-05-07 17:52 | 49.02061 | 2.55513 | 358 ft | 11 kts | 262° |
| 2026-05-07 17:52 | 49.02055 | 2.55388 | 355 ft | 12 kts | 265° |
| 2026-05-07 17:53 | 49.02048 | 2.55258 | 355 ft | 13 kts | 266° |
| 2026-05-07 17:53 | 49.02041 | 2.55109 | 356 ft | 15 kts | 265° |
| 2026-05-07 17:53 | 49.02034 | 2.54973 | 360 ft | 0 kts | 264° |
| 2026-05-07 17:54 | 49.02034 | 2.54971 | 357 ft | 1 kts | 264° |
| 2026-05-07 17:54 | 49.02032 | 2.54944 | 363 ft | 4 kts | 264° |
| 2026-05-07 17:54 | 49.02027 | 2.54883 | 360 ft | 7 kts | 264° |
| 2026-05-07 17:54 | 49.02021 | 2.54791 | 355 ft | 10 kts | 264° |
| 2026-05-07 17:55 | 49.02012 | 2.54674 | 355 ft | 12 kts | 264° |
| 2026-05-07 17:55 | 49.02004 | 2.54528 | 354 ft | 15 kts | 267° |
| 2026-05-07 17:55 | 49.02000 | 2.54361 | 360 ft | 17 kts | 268° |
| 2026-05-07 17:55 | 49.01968 | 2.54186 | 356 ft | 18 kts | 234° |
| 2026-05-07 17:56 | 49.01865 | 2.54129 | 361 ft | 16 kts | 184° |
| 2026-05-07 17:56 | 49.01803 | 2.54022 | 359 ft | 14 kts | 261° |
| 2026-05-07 17:56 | 49.01793 | 2.53863 | 356 ft | 16 kts | 266° |
| 2026-05-07 17:56 | 49.01785 | 2.53679 | 357 ft | 18 kts | 266° |
| 2026-05-07 17:57 | 49.01777 | 2.53478 | 360 ft | 20 kts | 266° |
| 2026-05-07 17:57 | 49.01767 | 2.53336 | 354 ft | 21 kts | 263° |
| 2026-05-07 17:57 | 49.01748 | 2.53029 | 354 ft | 23 kts | 265° |
| 2026-05-07 17:57 | 49.01738 | 2.52784 | 359 ft | 24 kts | 266° |
| 2026-05-07 17:58 | 49.01725 | 2.52537 | 354 ft | 22 kts | 266° |
| 2026-05-07 17:58 | 49.01716 | 2.52306 | 361 ft | 20 kts | 267° |
| 2026-05-07 17:58 | 49.01702 | 2.52090 | 358 ft | 21 kts | 263° |
| 2026-05-07 17:58 | 49.01686 | 2.51859 | 360 ft | 23 kts | 264° |
| 2026-05-07 17:59 | 49.01674 | 2.51669 | 357 ft | 0 kts | 264° |
| 2026-05-07 17:59 | 49.01671 | 2.51627 | 357 ft | 9 kts | 263° |
| 2026-05-07 17:59 | 49.01664 | 2.51486 | 350 ft | 17 kts | 266° |
| 2026-05-07 17:59 | 49.01673 | 2.51310 | 357 ft | 15 kts | 302° |
| 2026-05-07 18:00 | 49.01747 | 2.51267 | 354 ft | 11 kts | 354° |
| 2026-05-07 18:00 | 49.01835 | 2.51258 | 363 ft | 14 kts | 356° |
| 2026-05-07 18:00 | 49.01938 | 2.51249 | 357 ft | 15 kts | 4° |
| 2026-05-07 18:00 | 49.02031 | 2.51332 | 356 ft | 17 kts | 48° |
| 2026-05-07 18:01 | 49.02072 | 2.51473 | 354 ft | 13 kts | 84° |
| 2026-05-07 18:01 | 49.02088 | 2.51775 | 351 ft | 60 kts | 84° |
| 2026-05-07 18:01 | 49.02139 | 2.52737 | 356 ft | 119 kts | 85° |
| 2026-05-07 18:01 | 49.02213 | 2.54212 | 360 ft | 163 kts | 86° |
| 2026-05-07 18:02 | 49.02400 | 2.57959 | 1169 ft | 189 kts | 88° |
| 2026-05-07 18:02 | 49.02461 | 2.60027 | 1673 ft | 201 kts | 88° |
| 2026-05-07 18:02 | 49.02519 | 2.62227 | 2137 ft | 216 kts | 88° |
| 2026-05-07 18:03 | 49.02640 | 2.64609 | 2559 ft | 236 kts | 84° |
| 2026-05-07 18:03 | 49.02818 | 2.67150 | 3177 ft | 248 kts | 84° |
| 2026-05-07 18:03 | 49.03000 | 2.69775 | 4115 ft | 250 kts | 85° |
| 2026-05-07 18:03 | 49.03166 | 2.72434 | 5039 ft | 254 kts | 85° |
| 2026-05-07 18:04 | 49.03319 | 2.75133 | 5942 ft | 257 kts | 86° |
| 2026-05-07 18:04 | 49.03465 | 2.77859 | 6839 ft | 260 kts | 86° |
| 2026-05-07 18:04 | 49.03608 | 2.80624 | 7714 ft | 264 kts | 86° |
| 2026-05-07 18:05 | 49.03861 | 2.85552 | 9203 ft | 270 kts | 86° |
| 2026-05-07 18:05 | 49.04001 | 2.88340 | 10015 ft | 274 kts | 86° |
| 2026-05-07 18:05 | 49.04150 | 2.91303 | 10747 ft | 283 kts | 87° |
| 2026-05-07 18:05 | 49.03961 | 2.94348 | 11029 ft | 305 kts | 107° |
| 2026-05-07 18:06 | 49.02981 | 2.97320 | 11324 ft | 325 kts | 129° |
| 2026-05-07 18:06 | 49.01255 | 2.99579 | 12014 ft | 331 kts | 150° |
| 2026-05-07 18:06 | 48.99073 | 3.00717 | 12787 ft | 336 kts | 172° |
| 2026-05-07 18:06 | 48.96721 | 3.00901 | 13513 ft | 341 kts | 178° |
| 2026-05-07 18:07 | 48.94332 | 3.00989 | 14264 ft | 345 kts | 178° |
| 2026-05-07 18:07 | 48.91930 | 3.00797 | 14938 ft | 351 kts | 192° |
| 2026-05-07 18:07 | 48.89668 | 2.99389 | 15651 ft | 355 kts | 212° |
| 2026-05-07 18:07 | 48.87851 | 2.96837 | 16236 ft | 362 kts | 233° |
| 2026-05-07 18:08 | 48.86707 | 2.93400 | 16898 ft | 367 kts | 253° |
| 2026-05-07 18:08 | 48.86233 | 2.89581 | 17534 ft | 371 kts | 263° |
| 2026-05-07 18:08 | 48.85959 | 2.85655 | 18160 ft | 374 kts | 264° |
| 2026-05-07 18:08 | 48.85691 | 2.81652 | 18771 ft | 378 kts | 263° |
| 2026-05-07 18:09 | 48.85388 | 2.77717 | 19360 ft | 381 kts | 263° |
| 2026-05-07 18:09 | 48.85047 | 2.73759 | 19932 ft | 384 kts | 262° |
| 2026-05-07 18:09 | 48.84674 | 2.69721 | 20496 ft | 388 kts | 262° |